Time;durP1;ratioP1;P1;durP2;ratioP2;P2;SDS_P1;SDS_P2;PMS_P1;PMS_P2;Temp;Humidity;BMP_temperature;BMP_pressure;BME280_temperature;BME280_humidity;BME280_pressure;Samples;Min_cycle;Max_cycle;Signal;HPM_P1;HPM_P2
2022/03/02 00:00:07;;;;;;;48.50;18.88;;;;;;;4.58;88.72;102294.44;5083513;28;20068;-85
2022/03/02 00:02:33;;;;;;;48.38;18.35;;;;;;;4.55;89.35;102299.09;5083000;28;20638;-85
2022/03/02 00:04:58;;;;;;;43.33;18.63;;;;;;;4.46;91.86;102286.69;5085202;28;20024;-85
2022/03/02 00:07:24;;;;;;;40.80;17.80;;;;;;;4.28;95.07;102276.38;5065660;28;20025;-84
2022/03/02 00:09:50;;;;;;;47.38;19.27;;;;;;;4.16;95.71;102296.63;5071683;28;20071;-84
2022/03/02 00:12:16;;;;;;;42.13;18.85;;;;;;;3.98;98.21;102292.63;5098576;28;20028;-84
2022/03/02 00:14:41;;;;;;;47.80;17.60;;;;;;;3.91;100.00;102299.16;5082535;28;20112;-84
2022/03/02 00:17:07;;;;;;;40.25;16.92;;;;;;;3.69;100.00;102278.06;5066847;28;20166;-84
2022/03/02 00:19:32;;;;;;;40.60;17.08;;;;;;;3.74;100.00;102300.50;5093721;28;20512;-85
2022/03/02 00:21:58;;;;;;;46.28;18.67;;;;;;;3.66;100.00;102298.00;5106977;28;20032;-84
2022/03/02 00:24:23;;;;;;;42.33;18.35;;;;;;;3.63;100.00;102297.19;5106701;28;20042;-84
2022/03/02 00:26:49;;;;;;;42.05;18.10;;;;;;;3.67;100.00;102298.88;5106348;28;20078;-84
2022/03/02 00:29:15;;;;;;;39.08;16.75;;;;;;;3.64;100.00;102299.88;5103932;28;20024;-84
2022/03/02 00:31:41;;;;;;;39.17;16.67;;;;;;;3.54;100.00;102295.59;5107016;28;20061;-84
2022/03/02 00:34:06;;;;;;;39.15;17.75;;;;;;;3.54;100.00;102301.00;5103164;28;20017;-84
2022/03/02 00:36:31;;;;;;;43.42;18.13;;;;;;;3.30;100.00;102260.13;5086563;28;20045;-84
2022/03/02 00:38:57;;;;;;;39.22;17.33;;;;;;;3.39;100.00;102294.19;5102941;28;20048;-85
2022/03/02 00:41:22;;;;;;;44.22;17.90;;;;;;;3.22;100.00;102281.09;5102168;28;20028;-84
2022/03/02 00:43:48;;;;;;;35.38;16.02;;;;;;;3.26;100.00;102290.94;5093981;28;20038;-84
2022/03/02 00:46:14;;;;;;;41.65;15.68;;;;;;;3.29;100.00;102287.22;5110421;28;20044;-84
2022/03/02 00:48:41;;;;;;;42.25;17.40;;;;;;;3.24;100.00;102295.47;5089231;28;20059;-84
2022/03/02 00:51:07;;;;;;;42.17;17.33;;;;;;;3.28;100.00;102291.78;5086034;28;20100;-84
2022/03/02 00:53:33;;;;;;;37.15;15.77;;;;;;;3.32;99.57;102289.88;5085410;28;20040;-84
2022/03/02 00:55:58;;;;;;;46.60;15.57;;;;;;;3.26;100.00;102281.91;5102089;28;20077;-84
2022/03/02 00:58:24;;;;;;;35.10;15.98;;;;;;;3.29;99.58;102282.69;5085285;28;20020;-84
2022/03/02 01:00:49;;;;;;;38.17;15.88;;;;;;;3.27;99.24;102283.69;5076011;28;20032;-84
2022/03/02 01:03:15;;;;;;;45.58;16.58;;;;;;;3.18;100.00;102273.09;5092950;28;20563;-84
2022/03/02 01:05:41;;;;;;;40.00;16.20;;;;;;;3.15;100.00;102270.44;5107483;28;20032;-83
2022/03/02 01:08:06;;;;;;;36.97;15.90;;;;;;;3.18;100.00;102271.28;5096893;28;20021;-83
2022/03/02 01:10:32;;;;;;;38.78;16.73;;;;;;;3.18;100.00;102273.09;5084779;28;20024;-83
2022/03/02 01:12:57;;;;;;;35.92;16.02;;;;;;;3.10;100.00;102276.88;5087009;28;20032;-83
2022/03/02 01:15:23;;;;;;;40.05;16.58;;;;;;;3.09;100.00;102269.69;5058362;28;20021;-84
2022/03/02 01:17:48;;;;;;;37.38;16.90;;;;;;;3.16;100.00;102267.72;5082318;28;20084;-83
2022/03/02 01:20:14;;;;;;;38.38;16.50;;;;;;;3.19;100.00;102267.63;5101683;28;20035;-83
2022/03/02 01:22:41;;;;;;;35.58;15.23;;;;;;;3.12;100.00;102266.91;5075548;28;20611;-83
2022/03/02 01:25:08;;;;;;;37.85;16.05;;;;;;;3.09;100.00;102269.69;5095614;28;20432;-83
2022/03/02 01:27:34;;;;;;;37.78;16.65;;;;;;;3.03;100.00;102264.41;5086829;28;20032;-83
2022/03/02 01:30:00;;;;;;;39.05;17.67;;;;;;;3.00;100.00;102261.81;5090941;28;20062;-83
2022/03/02 01:32:25;;;;;;;38.60;16.52;;;;;;;2.97;100.00;102270.00;5087493;28;20058;-83
2022/03/02 01:34:51;;;;;;;41.33;16.23;;;;;;;3.03;100.00;102263.53;5081742;28;20032;-83
2022/03/02 01:37:16;;;;;;;30.90;14.90;;;;;;;2.92;100.00;102253.88;5084686;28;20598;-82
2022/03/02 01:39:42;;;;;;;33.78;15.05;;;;;;;2.98;100.00;102262.75;5100720;28;20020;-83
2022/03/02 01:42:08;;;;;;;31.13;15.82;;;;;;;2.91;100.00;102248.50;5070853;28;20032;-83
2022/03/02 01:44:35;;;;;;;33.47;14.85;;;;;;;2.76;100.00;102231.72;5080746;28;20115;-83
2022/03/02 01:47:01;;;;;;;34.50;15.38;;;;;;;2.92;100.00;102255.72;5081050;28;20589;-83
2022/03/02 01:49:27;;;;;;;39.88;15.10;;;;;;;3.00;100.00;102251.00;5104957;28;20024;-83
2022/03/02 01:51:52;;;;;;;38.60;15.38;;;;;;;3.01;100.00;102251.88;5101059;28;20079;-83
2022/03/02 01:54:18;;;;;;;32.80;15.00;;;;;;;3.07;100.00;102243.63;5097963;28;20070;-82
2022/03/02 01:56:43;;;;;;;34.65;15.02;;;;;;;2.94;100.00;102243.91;5081361;28;20077;-83
2022/03/02 01:59:10;;;;;;;39.88;16.10;;;;;;;2.89;100.00;102232.31;5063576;28;20033;-83
2022/03/02 02:01:35;;;;;;;36.95;15.40;;;;;;;2.94;100.00;102246.59;5080453;28;20028;-83
2022/03/02 02:04:03;;;;;;;34.95;14.70;;;;;;;2.90;100.00;102239.50;5080782;28;20039;-83
2022/03/02 02:06:30;;;;;;;34.97;15.77;;;;;;;2.83;100.00;102236.97;5096389;28;20491;-83
2022/03/02 02:08:57;;;;;;;37.85;15.82;;;;;;;2.72;100.00;102205.69;5096345;28;20041;-83
2022/03/02 02:11:23;;;;;;;45.50;16.38;;;;;;;2.68;100.00;102201.28;5118072;28;20031;-83
2022/03/02 02:13:49;;;;;;;37.45;15.68;;;;;;;2.70;100.00;102217.47;5088991;28;20036;-83
2022/03/02 02:16:17;;;;;;;39.10;16.33;;;;;;;2.58;100.00;102202.44;5079980;28;20028;-83
2022/03/02 02:18:43;;;;;;;39.75;16.30;;;;;;;2.65;100.00;102216.69;5081910;28;20048;-83
2022/03/02 02:21:10;;;;;;;36.17;15.57;;;;;;;2.57;100.00;102224.97;5082803;28;20039;-83
2022/03/02 02:23:37;;;;;;;36.67;16.58;;;;;;;2.67;100.00;102226.56;5081773;28;20028;-83
2022/03/02 02:26:04;;;;;;;42.85;16.48;;;;;;;2.68;100.00;102232.84;5097273;28;20036;-83
2022/03/02 02:28:32;;;;;;;44.15;17.65;;;;;;;2.72;100.00;102213.81;5051792;28;20029;-84
2022/03/02 02:30:59;;;;;;;35.05;16.70;;;;;;;2.78;100.00;102218.16;5085800;28;20044;-83
2022/03/02 02:33:26;;;;;;;35.67;15.90;;;;;;;2.78;100.00;102215.47;5085312;28;20428;-83
2022/03/02 02:35:51;;;;;;;35.47;17.00;;;;;;;2.71;100.00;102211.13;5116751;28;20019;-83
2022/03/02 02:38:18;;;;;;;33.63;14.88;;;;;;;2.71;100.00;102187.69;5088338;28;20119;-84
2022/03/02 02:40:44;;;;;;;36.10;15.23;;;;;;;2.91;100.00;102216.03;5084541;28;20488;-83
2022/03/02 02:43:10;;;;;;;41.10;16.92;;;;;;;2.92;100.00;102209.72;5085490;28;20028;-83
2022/03/02 02:45:35;;;;;;;37.08;15.95;;;;;;;2.92;100.00;102201.59;5116949;28;20024;-84
2022/03/02 02:48:01;;;;;;;46.83;15.73;;;;;;;2.98;99.20;102200.53;5088552;28;20029;-83
2022/03/02 02:50:29;;;;;;;36.05;15.30;;;;;;;3.01;97.27;102206.75;5083475;28;20037;-83
2022/03/02 02:52:57;;;;;;;37.65;15.50;;;;;;;3.00;99.82;102204.09;5096816;28;20486;-83
2022/03/02 02:55:27;;;;;;;41.22;16.08;;;;;;;2.91;100.00;102206.09;5097523;28;20051;-83
2022/03/02 02:57:55;;;;;;;37.30;16.25;;;;;;;2.80;100.00;102200.06;5070653;28;20109;-83
2022/03/02 03:00:22;;;;;;;37.33;16.33;;;;;;;2.69;100.00;102203.06;5086502;28;20028;-83
2022/03/02 03:02:51;;;;;;;42.83;16.33;;;;;;;2.55;100.00;102192.56;5080363;28;20016;-83
2022/03/02 03:05:20;;;;;;;37.05;15.57;;;;;;;2.69;100.00;102189.53;5080860;28;20024;-82
2022/03/02 03:07:46;;;;;;;40.13;15.77;;;;;;;2.82;100.00;102197.31;5072887;28;20040;-82
2022/03/02 03:10:13;;;;;;;39.35;15.43;;;;;;;2.67;99.30;102166.16;5082486;28;20036;-82
2022/03/02 03:12:39;;;;;;;43.80;15.65;;;;;;;2.91;97.19;102198.00;5100607;28;20024;-83
2022/03/02 03:15:07;;;;;;;34.72;14.93;;;;;;;2.90;99.64;102189.91;5105458;28;20039;-84
2022/03/02 03:17:33;;;;;;;39.38;15.98;;;;;;;2.85;98.76;102172.91;5106701;28;20472;-83
2022/03/02 03:19:59;;;;;;;38.85;16.27;;;;;;;2.99;96.12;102189.69;5070061;28;20055;-83
2022/03/02 03:22:24;;;;;;;45.45;15.43;;;;;;;2.92;95.62;102178.13;5095794;28;20079;-83
2022/03/02 03:24:50;;;;;;;36.50;15.20;;;;;;;2.93;96.13;102188.00;5066686;28;20037;-82
2022/03/02 03:27:15;;;;;;;38.90;16.67;;;;;;;2.82;98.82;102186.50;5069110;28;20089;-82
2022/03/02 03:29:41;;;;;;;42.83;17.15;;;;;;;2.55;100.00;102153.84;5103954;28;20048;-83
2022/03/02 03:32:07;;;;;;;35.15;16.55;;;;;;;2.72;100.00;102202.06;5078657;28;20033;-83
2022/03/02 03:34:33;;;;;;;37.67;15.88;;;;;;;2.83;98.29;102191.00;5096282;28;20125;-83
2022/03/02 03:36:58;;;;;;;41.20;16.48;;;;;;;2.92;96.69;102196.19;5090893;28;20054;-82
2022/03/02 03:39:23;;;;;;;37.10;16.13;;;;;;;2.96;96.36;102186.19;5084546;28;20032;-83
2022/03/02 03:41:49;;;;;;;40.58;16.27;;;;;;;2.98;96.90;102185.19;5061241;28;20036;-83
2022/03/02 03:44:14;;;;;;;33.28;14.82;;;;;;;2.98;94.95;102187.00;5078595;28;20145;-83
2022/03/02 03:46:40;;;;;;;34.28;14.82;;;;;;;3.01;95.64;102186.94;5079294;28;20031;-83
2022/03/02 03:49:06;;;;;;;38.90;17.13;;;;;;;2.80;96.26;102158.63;5079603;28;20028;-83
2022/03/02 03:51:33;;;;;;;36.95;16.15;;;;;;;2.96;96.01;102184.34;5064747;28;20049;-83
2022/03/02 03:53:59;;;;;;;40.40;16.60;;;;;;;2.94;95.39;102186.22;5083119;28;20032;-83
2022/03/02 03:56:25;;;;;;;33.80;15.93;;;;;;;2.93;95.69;102187.13;5080146;28;20032;-83
2022/03/02 03:58:50;;;;;;;35.17;15.60;;;;;;;2.88;95.33;102180.94;5082467;28;20058;-83
2022/03/02 04:01:15;;;;;;;38.50;15.48;;;;;;;2.87;94.29;102173.75;5081463;28;20100;-82
2022/03/02 04:03:41;;;;;;;37.92;15.25;;;;;;;2.92;94.65;102177.25;5082212;28;20028;-83
2022/03/02 04:06:06;;;;;;;33.53;14.55;;;;;;;2.89;94.04;102171.91;5088821;28;20044;-83
2022/03/02 04:08:32;;;;;;;39.38;15.63;;;;;;;2.83;94.42;102158.56;5081655;28;20040;-83
2022/03/02 04:10:59;;;;;;;34.60;15.57;;;;;;;2.93;93.19;102173.59;5113661;28;20492;-82
2022/03/02 04:13:25;;;;;;;35.38;15.15;;;;;;;2.94;92.79;102183.50;5106443;28;20063;-84
2022/03/02 04:15:51;;;;;;;38.00;14.60;;;;;;;2.85;92.97;102162.09;5083936;28;20027;-83
2022/03/02 04:18:17;;;;;;;33.17;15.18;;;;;;;2.84;91.92;102157.63;5096949;28;20483;-83
2022/03/02 04:20:42;;;;;;;37.03;15.57;;;;;;;2.92;92.10;102170.03;5083852;28;20025;-83
2022/03/02 04:23:11;;;;;;;33.58;14.13;;;;;;;2.93;92.96;102162.78;5093939;28;20046;-83
2022/03/02 04:25:36;;;;;;;34.22;14.95;;;;;;;2.90;92.07;102154.75;5094320;28;20020;-83
2022/03/02 04:28:02;;;;;;;39.55;14.43;;;;;;;2.70;92.09;102122.81;5088931;28;20081;-83
2022/03/02 04:30:30;;;;;;;35.22;14.00;;;;;;;2.82;92.35;102149.56;5085219;28;20060;-84
2022/03/02 04:32:58;;;;;;;40.47;15.15;;;;;;;2.74;95.83;102149.75;5090660;28;20033;-83
2022/03/02 04:35:24;;;;;;;32.00;14.68;;;;;;;2.46;97.61;102141.44;5088795;28;20055;-83
2022/03/02 04:37:49;;;;;;;27.55;13.57;;;;;;;2.56;97.40;102142.97;5083525;28;20152;-84
2022/03/02 04:40:16;;;;;;;33.58;14.48;;;;;;;2.62;96.15;102149.16;5084163;28;20024;-83
2022/03/02 04:42:42;;;;;;;31.33;14.77;;;;;;;2.63;95.71;102148.25;5100544;28;20020;-83
2022/03/02 04:45:08;;;;;;;39.22;14.65;;;;;;;2.61;95.93;102137.47;5086948;28;20100;-83
2022/03/02 04:47:34;;;;;;;28.80;13.48;;;;;;;2.60;95.48;102146.50;5092765;28;20135;-84
2022/03/02 04:50:00;;;;;;;28.58;12.98;;;;;;;2.61;94.31;102137.47;5089682;28;20487;-84
2022/03/02 04:52:25;;;;;;;32.33;12.80;;;;;;;2.65;93.83;102143.69;5084215;28;20126;-83
2022/03/02 04:55:06;;;;;;;29.25;12.55;;;;;;;2.42;93.29;102110.00;5071998;28;20055;-86
2022/03/02 04:57:33;;;;;;;31.30;13.55;;;;;;;2.66;93.72;102146.34;5105227;28;20080;-85
2022/03/02 04:59:59;;;;;;;27.20;12.55;;;;;;;2.63;93.18;102145.53;5095626;28;20114;-87
2022/03/02 05:02:24;;;;;;;32.90;13.18;;;;;;;2.60;94.22;102146.50;5084478;28;20539;-87
2022/03/02 05:04:50;;;;;;;31.42;14.60;;;;;;;2.47;96.38;102145.91;5101835;28;20538;-86
2022/03/02 05:07:16;;;;;;;30.73;12.80;;;;;;;2.17;99.58;102117.81;5103190;28;20748;-85
2022/03/02 05:09:43;;;;;;;39.80;12.77;;;;;;;2.31;100.00;102145.41;5089554;28;20027;-85
2022/03/02 05:12:10;;;;;;;35.70;12.55;;;;;;;2.26;100.00;102136.50;5084688;28;20036;-85
2022/03/02 05:14:36;;;;;;;26.13;11.52;;;;;;;2.24;100.00;102134.78;5099323;28;20028;-86
2022/03/02 05:17:02;;;;;;;26.38;11.80;;;;;;;2.24;99.80;102138.34;5088837;28;20510;-84
2022/03/02 05:19:28;;;;;;;26.15;12.43;;;;;;;2.29;99.37;102136.41;5095953;28;20438;-86
2022/03/02 05:21:53;;;;;;;26.30;11.63;;;;;;;2.37;98.81;102138.94;5082284;28;20040;-86
2022/03/02 05:24:19;;;;;;;34.17;11.85;;;;;;;2.27;96.88;102113.09;5104459;28;20054;-85
2022/03/02 05:26:44;;;;;;;30.45;12.32;;;;;;;2.38;100.00;102125.41;5059590;28;20032;-86
2022/03/02 05:29:10;;;;;;;29.95;13.10;;;;;;;2.26;97.51;102104.06;5066157;28;20028;-85
2022/03/02 05:31:36;;;;;;;32.45;11.88;;;;;;;2.35;95.28;102125.47;5069746;28;20028;-85
2022/03/02 05:34:02;;;;;;;27.73;11.73;;;;;;;2.38;93.26;102122.69;5104417;28;20024;-87
2022/03/02 05:36:27;;;;;;;29.83;12.27;;;;;;;2.42;93.37;102126.22;5088096;28;20131;-86
2022/03/02 05:38:53;;;;;;;25.67;11.13;;;;;;;2.45;92.94;102128.84;5083023;28;20036;-85
2022/03/02 05:41:21;;;;;;;25.10;12.57;;;;;;;2.35;91.89;102113.78;5073296;28;20048;-84
2022/03/02 05:43:48;;;;;;;23.52;11.95;;;;;;;2.43;91.56;102132.50;5064046;28;20056;-83
2022/03/02 05:46:14;;;;;;;28.80;12.65;;;;;;;2.32;91.61;102112.03;5052540;28;20032;-84
2022/03/02 05:48:39;;;;;;;25.55;11.20;;;;;;;2.30;91.68;102105.78;5051334;28;20029;-83
2022/03/02 05:51:05;;;;;;;25.50;11.23;;;;;;;2.39;91.05;102124.50;5101102;28;20518;-84
2022/03/02 05:53:32;;;;;;;29.00;12.00;;;;;;;2.28;93.39;102120.25;5092273;28;20482;-85
2022/03/02 05:55:58;;;;;;;29.23;12.52;;;;;;;2.33;93.67;102129.16;5049740;28;20059;-86
2022/03/02 05:58:25;;;;;;;27.35;12.50;;;;;;;2.31;93.83;102128.28;5081327;28;20012;-85
2022/03/02 06:00:51;;;;;;;34.15;12.23;;;;;;;2.28;94.49;102133.75;5078570;28;20101;-85
2022/03/02 06:03:17;;;;;;;30.98;12.27;;;;;;;2.23;94.07;102130.28;5102406;28;20041;-85
2022/03/02 06:05:42;;;;;;;25.17;12.32;;;;;;;2.16;95.14;102121.44;5074759;28;20045;-83
2022/03/02 06:08:10;;;;;;;28.92;11.90;;;;;;;2.22;94.71;102129.41;5079874;28;20024;-86
2022/03/02 06:10:37;;;;;;;25.45;12.07;;;;;;;2.26;93.47;102130.22;5061474;28;20506;-85
2022/03/02 06:13:03;;;;;;;30.08;11.77;;;;;;;2.18;96.62;102130.38;5070762;28;20028;-84
2022/03/02 06:15:30;;;;;;;28.27;12.07;;;;;;;2.16;96.74;102137.66;5096678;28;20038;-84
2022/03/02 06:18:00;;;;;;;28.60;11.15;;;;;;;2.18;95.65;102128.59;5051168;28;20074;-84
2022/03/02 06:20:28;;;;;;;22.83;10.93;;;;;;;2.18;92.74;102122.28;5078943;28;20035;-83
2022/03/02 06:22:54;;;;;;;24.60;11.35;;;;;;;2.20;92.26;102128.56;5047571;28;20054;-85
2022/03/02 06:25:20;;;;;;;24.52;12.07;;;;;;;2.23;93.22;102142.00;5085924;28;20043;-86
2022/03/02 06:27:45;;;;;;;25.25;12.10;;;;;;;2.06;97.05;102139.66;5080942;28;20048;-84
2022/03/02 06:30:12;;;;;;;28.75;12.55;;;;;;;1.95;99.86;102131.81;5078311;28;20036;-84
2022/03/02 06:32:39;;;;;;;23.40;10.65;;;;;;;1.91;100.00;102134.63;5096631;28;20024;-84
2022/03/02 06:35:06;;;;;;;28.00;11.57;;;;;;;1.86;100.00;102125.75;5092778;28;20071;-85
2022/03/02 06:37:33;;;;;;;21.13;11.50;;;;;;;1.97;99.62;102132.66;5054410;28;20016;-84
2022/03/02 06:40:11;;;;;;;26.60;11.15;;;;;;;2.05;99.10;102131.59;5085729;28;20085;-84
2022/03/02 06:43:00;;;;;;;28.17;12.77;;;;;;;1.91;100.00;102140.03;5064597;28;20044;-84
2022/03/02 06:45:48;;;;;;;25.27;11.38;;;;;;;1.92;100.00;102137.28;5081550;28;20032;-84
2022/03/02 06:48:24;;;;;;;20.55;10.35;;;;;;;1.84;100.00;102118.56;5075620;28;20044;-83
2022/03/02 06:50:53;;;;;;;25.40;11.85;;;;;;;1.99;98.07;102122.72;5062242;28;20053;-84
2022/03/02 06:53:33;;;;;;;21.70;10.95;;;;;;;2.18;96.07;102143.91;5079125;28;20031;-84
2022/03/02 06:56:01;;;;;;;23.42;10.85;;;;;;;2.24;94.60;102142.88;5078760;28;20025;-85
2022/03/02 06:58:34;;;;;;;28.83;11.82;;;;;;;2.30;95.09;102143.63;5067985;28;20036;-85
2022/03/02 07:01:01;;;;;;;;;;;;;;;2.40;94.91;102155.09;5084800;28;20044;-85
2022/03/02 07:03:30;;;;;;;25.52;11.00;;;;;;;2.39;93.96;102154.22;5080224;28;19963;-84
2022/03/02 07:05:55;;;;;;;29.02;10.60;;;;;;;2.42;93.70;102138.84;5079418;28;20510;-85
2022/03/02 07:08:22;;;;;;;29.10;11.90;;;;;;;2.51;95.00;102154.81;5105098;28;20029;-86
2022/03/02 07:10:51;;;;;;;23.77;10.68;;;;;;;2.59;93.43;102152.81;5096489;28;20054;-84
2022/03/02 07:13:17;;;;;;;31.17;11.93;;;;;;;2.57;93.43;102144.78;5083343;28;20471;-85
2022/03/02 07:15:42;;;;;;;25.88;10.82;;;;;;;2.72;93.35;102148.00;5082157;28;20104;-85
2022/03/02 07:18:08;;;;;;;30.00;11.43;;;;;;;2.72;92.62;102145.28;5083206;28;20614;-87
2022/03/02 07:20:39;;;;;;;25.67;11.43;;;;;;;2.76;94.89;102155.13;5097560;28;20055;-85
2022/03/02 07:23:11;;;;;;;23.58;11.70;;;;;;;2.68;98.59;102146.31;5071731;28;20033;-84
2022/03/02 07:25:44;;;;;;;36.90;12.05;;;;;;;2.73;99.39;102152.50;5099597;28;20044;-84
2022/03/02 07:28:11;;;;;;;30.65;11.73;;;;;;;2.82;98.60;102156.75;5100975;28;20046;-84
2022/03/02 07:30:37;;;;;;;28.58;11.90;;;;;;;2.93;98.81;102160.97;5081553;28;20032;-84
2022/03/02 07:33:05;;;;;;;21.70;11.45;;;;;;;2.98;98.79;102154.56;5083425;28;20653;-83
2022/03/02 07:35:34;;;;;;;23.75;11.88;;;;;;;2.96;98.49;102143.78;5069039;28;20507;-84
2022/03/02 07:38:00;;;;;;;24.08;12.20;;;;;;;3.13;98.81;102163.16;5070003;28;20100;-84
2022/03/02 07:40:26;;;;;;;28.80;13.43;;;;;;;3.18;97.95;102137.78;5069966;28;20059;-83
2022/03/02 07:42:53;;;;;;;26.35;12.90;;;;;;;3.35;95.73;102150.88;5084503;28;20172;-83
2022/03/02 07:45:19;;;;;;;22.65;11.70;;;;;;;3.50;92.67;102143.16;5085422;28;20041;-84
2022/03/02 07:47:45;;;;;;;26.77;12.38;;;;;;;3.72;91.26;102137.13;5066638;28;20047;-85
2022/03/02 07:50:13;;;;;;;25.27;11.70;;;;;;;3.94;87.46;102128.38;5101889;28;20045;-83
2022/03/02 07:52:45;;;;;;;21.95;11.52;;;;;;;4.14;87.92;102125.91;5081610;28;20058;-84
2022/03/02 07:55:10;;;;;;;30.73;12.77;;;;;;;4.38;88.24;102128.78;5081487;28;20047;-85
2022/03/02 07:57:41;;;;;;;32.35;13.23;;;;;;;4.64;84.83;102133.34;5073607;28;20902;-84
2022/03/02 08:00:09;;;;;;;25.65;12.55;;;;;;;4.77;86.37;102128.34;5045279;28;20544;-84
2022/03/02 08:02:35;;;;;;;32.10;13.05;;;;;;;4.95;84.83;102130.47;5066632;28;20039;-84
2022/03/02 08:05:02;;;;;;;27.70;12.63;;;;;;;4.96;83.01;102125.91;5087553;28;20063;-84
2022/03/02 08:07:27;;;;;;;25.15;12.32;;;;;;;4.91;78.79;102117.03;5101860;28;20036;-81
2022/03/02 08:09:53;;;;;;;30.60;12.82;;;;;;;5.28;78.64;102145.56;5108274;28;20051;-84
2022/03/02 08:12:23;;;;;;;27.00;12.98;;;;;;;5.47;74.95;102134.94;5082870;28;20293;-85
2022/03/02 08:14:50;;;;;;;26.20;12.55;;;;;;;5.53;73.77;102142.88;5099211;28;20025;-84
2022/03/02 08:17:17;;;;;;;33.58;13.50;;;;;;;5.76;76.87;102136.56;5073180;28;20040;-85
2022/03/02 08:19:42;;;;;;;34.45;14.30;;;;;;;5.85;71.28;102124.44;5108976;28;20039;-84
2022/03/02 08:22:14;;;;;;;25.70;13.10;;;;;;;5.97;70.86;102123.09;5089296;28;20531;-84
2022/03/02 08:24:45;;;;;;;28.15;13.45;;;;;;;6.06;73.50;102112.75;5091221;28;20036;-84
2022/03/02 08:27:13;;;;;;;29.70;14.02;;;;;;;6.25;71.76;102121.06;5108769;28;20032;-84
2022/03/02 08:29:40;;;;;;;32.05;13.40;;;;;;;6.12;72.17;102116.19;5074522;28;20025;-85
2022/03/02 08:32:06;;;;;;;31.38;14.93;;;;;;;6.51;72.34;102121.84;5102893;28;20032;-84
2022/03/02 08:34:33;;;;;;;28.42;13.65;;;;;;;6.61;71.18;102119.63;5112404;28;20041;-84
2022/03/02 08:37:01;;;;;;;33.13;13.55;;;;;;;6.93;67.10;102118.22;5112375;28;20027;-84
2022/03/02 08:39:27;;;;;;;29.23;13.90;;;;;;;6.98;68.98;102120.75;5098051;28;20052;-84
2022/03/02 08:41:54;;;;;;;24.52;12.85;;;;;;;7.11;65.42;102115.66;5108038;28;20043;-84
2022/03/02 08:44:20;;;;;;;26.80;12.65;;;;;;;7.38;63.20;102119.00;5094308;28;20036;-84
2022/03/02 08:46:47;;;;;;;31.60;13.63;;;;;;;7.37;63.83;102103.59;5087260;28;20044;-83
2022/03/02 08:49:15;;;;;;;21.90;12.07;;;;;;;7.55;62.13;102127.25;5099727;28;20028;-84
2022/03/02 08:51:41;;;;;;;28.27;13.40;;;;;;;7.36;63.98;102112.69;5091961;28;20040;-83
2022/03/02 08:54:08;;;;;;;31.90;14.45;;;;;;;8.03;63.07;102105.94;5096776;28;20025;-84
2022/03/02 08:56:37;;;;;;;34.30;13.05;;;;;;;8.04;60.59;102106.84;5087337;28;20046;-85
2022/03/02 08:59:04;;;;;;;28.80;13.90;;;;;;;8.15;63.06;102101.75;5072760;28;20067;-85
2022/03/02 09:01:31;;;;;;;30.17;13.30;;;;;;;8.56;61.95;102109.75;5105168;28;20028;-85
2022/03/02 09:03:59;;;;;;;27.23;12.88;;;;;;;8.91;59.50;102107.03;5089428;28;20020;-84
2022/03/02 09:06:30;;;;;;;26.63;13.18;;;;;;;9.18;59.08;102106.56;5089716;28;20028;-84
2022/03/02 09:08:55;;;;;;;28.30;14.50;;;;;;;8.93;58.21;102113.31;5107730;28;20040;-85
2022/03/02 09:11:21;;;;;;;28.50;14.15;;;;;;;8.82;59.75;102105.69;5091640;28;20523;-84
2022/03/02 09:13:49;;;;;;;29.05;13.75;;;;;;;9.40;55.43;102106.31;5090812;28;20021;-84
2022/03/02 09:16:15;;;;;;;32.90;13.32;;;;;;;9.04;54.37;102099.09;5089364;28;20037;-84
2022/03/02 09:18:40;;;;;;;28.88;14.25;;;;;;;9.11;56.94;102097.78;5095837;28;20043;-84
2022/03/02 09:21:06;;;;;;;33.05;14.45;;;;;;;9.47;55.81;102099.53;5106281;28;20067;-84
2022/03/02 09:23:40;;;;;;;32.67;13.90;;;;;;;9.46;54.41;102105.06;5090321;28;20051;-84
2022/03/02 09:26:12;;;;;;;27.63;14.18;;;;;;;9.46;55.13;102094.13;5107186;28;20050;-84
2022/03/02 09:28:40;;;;;;;34.58;14.20;;;;;;;10.05;54.42;102078.09;5096677;28;20043;-84
2022/03/02 09:31:08;;;;;;;30.25;13.95;;;;;;;10.00;53.66;102094.78;5090127;28;20088;-85
2022/03/02 09:33:35;;;;;;;33.40;13.60;;;;;;;9.84;51.54;102091.13;5086874;28;20001;-85
2022/03/02 09:36:09;;;;;;;28.08;14.02;;;;;;;10.06;53.29;102085.34;5077508;28;20054;-84
2022/03/02 09:38:36;;;;;;;26.05;13.38;;;;;;;10.22;51.00;102078.00;5072341;28;20035;-85
2022/03/02 09:41:08;;;;;;;32.63;13.80;;;;;;;10.17;53.46;102068.31;5084034;28;20039;-85
2022/03/02 09:43:35;;;;;;;26.87;12.60;;;;;;;10.82;48.73;102071.75;5065752;28;20040;-84
2022/03/02 09:46:06;;;;;;;32.05;13.40;;;;;;;10.77;48.44;102073.00;5083373;28;20053;-85
2022/03/02 09:48:35;;;;;;;25.27;13.43;;;;;;;10.78;46.95;102066.56;5065658;28;20031;-84
2022/03/02 09:51:07;;;;;;;24.63;12.82;;;;;;;10.28;48.11;102074.00;5083025;28;20039;-84
2022/03/02 09:53:35;;;;;;;28.00;13.18;;;;;;;10.39;48.67;102074.31;5082512;28;20043;-84
2022/03/02 09:56:06;;;;;;;24.58;12.40;;;;;;;10.57;48.06;102082.41;5085626;28;20055;-84
2022/03/02 09:58:36;;;;;;;27.65;13.00;;;;;;;10.52;47.15;102070.84;5068473;28;20021;-85
2022/03/02 10:01:02;;;;;;;30.05;13.15;;;;;;;10.95;47.64;102080.13;5092501;28;20081;-85
2022/03/02 10:03:36;;;;;;;27.52;13.80;;;;;;;10.96;47.71;102078.25;5106631;28;20132;-85
2022/03/02 10:06:05;;;;;;;39.75;19.60;;;;;;;9.97;47.84;102066.69;5082757;28;20028;-85
2022/03/02 10:08:35;;;;;;;44.15;21.30;;;;;;;10.69;48.08;102076.22;5082551;28;20511;-86
2022/03/02 10:11:06;;;;;;;27.17;13.45;;;;;;;11.14;48.36;102073.50;5085566;28;20036;-85
2022/03/02 10:13:33;;;;;;;27.27;12.10;;;;;;;11.41;45.97;102076.34;5071132;28;20023;-84
2022/03/02 10:16:03;;;;;;;28.23;13.70;;;;;;;11.67;45.62;102065.59;5086656;28;20036;-85
2022/03/02 10:18:34;;;;;;;26.75;15.48;;;;;;;10.77;48.34;102068.41;5124619;28;20024;-84
2022/03/02 10:21:03;;;;;;;37.03;18.05;;;;;;;10.37;49.20;102072.66;5089642;28;20024;-84
2022/03/02 10:23:41;;;;;;;28.15;11.95;;;;;;;10.33;48.28;102063.75;5101746;28;20035;-84
2022/03/02 10:26:18;;;;;;;25.55;11.43;;;;;;;9.63;47.60;102069.50;5109803;28;20028;-84
2022/03/02 10:29:20;;;;;;;24.08;11.82;;;;;;;10.08;48.63;102064.22;5087392;28;20036;-83
2022/03/02 10:32:08;;;;;;;22.80;11.32;;;;;;;10.10;51.15;102067.75;5080456;28;20039;-85
2022/03/02 10:34:50;;;;;;;27.63;12.05;;;;;;;10.82;46.47;102077.25;5110054;28;20047;-84
2022/03/02 10:37:33;;;;;;;19.90;11.50;;;;;;;10.91;46.59;102064.81;5086836;28;20033;-84
2022/03/02 10:40:24;;;;;;;23.20;11.02;;;;;;;10.88;46.14;102073.22;5108392;28;20270;-84
2022/03/02 10:43:00;;;;;;;23.40;11.95;;;;;;;10.42;45.90;102070.53;5074932;28;20032;-83
2022/03/02 10:45:35;;;;;;;22.10;11.63;;;;;;;10.45;47.22;102067.59;5090038;28;20566;-84
2022/03/02 10:48:16;;;;;;;24.42;11.60;;;;;;;10.58;47.76;102063.16;5090511;28;20031;-84
2022/03/02 10:50:43;;;;;;;22.38;11.93;;;;;;;11.13;49.22;102060.75;5088505;28;20025;-84
2022/03/02 10:53:13;;;;;;;25.40;11.50;;;;;;;11.28;47.67;102064.41;5105387;28;20045;-84
2022/03/02 10:55:43;;;;;;;26.92;12.48;;;;;;;11.22;44.82;102062.94;5093884;28;20514;-85
2022/03/02 10:58:13;;;;;;;20.60;11.07;;;;;;;10.36;48.17;102057.19;5075109;28;20120;-85
2022/03/02 11:00:38;;;;;;;20.40;11.15;;;;;;;10.64;48.13;102060.06;5081881;28;20047;-86
2022/03/02 11:03:04;;;;;;;20.35;11.63;;;;;;;10.62;49.31;102059.25;5064855;28;20037;-85
2022/03/02 11:05:31;;;;;;;25.48;12.88;;;;;;;10.52;48.59;102055.31;5082152;28;20047;-86
2022/03/02 11:07:57;;;;;;;24.08;11.90;;;;;;;11.27;45.81;102058.03;5082628;28;20024;-86
2022/03/02 11:10:33;;;;;;;22.00;11.05;;;;;;;10.94;46.02;102055.56;5078202;28;20037;-84
2022/03/02 11:13:15;;;;;;;20.52;11.55;;;;;;;11.33;45.46;102030.25;5073426;28;20024;-84
2022/03/02 11:16:00;;;;;;;23.50;12.70;;;;;;;10.94;45.92;102039.97;5101254;28;20106;-86